createdAt,value
2019-02-23T00:00:58.083Z,69.83
2019-02-23T00:03:27.427Z,58.83
2019-02-23T00:05:56.786Z,71.30
2019-02-23T00:08:27.590Z,66.20
2019-02-23T00:10:56.938Z,66.80
2019-02-23T00:13:26.263Z,68.27
2019-02-23T00:15:55.613Z,70.60
2019-02-23T00:18:26.921Z,75.43
2019-02-23T00:20:56.254Z,63.23
2019-02-23T00:23:25.607Z,69.97
2019-02-23T00:25:54.951Z,69.40
2019-02-23T00:28:24.274Z,69.87
2019-02-23T00:30:53.603Z,69.57
2019-02-23T00:33:22.960Z,72.73
2019-02-23T00:35:52.323Z,68.93
2019-02-23T00:38:21.695Z,76.30
2019-02-23T00:40:51.006Z,72.77
2019-02-23T00:43:20.345Z,80.43
2019-02-23T00:45:49.709Z,73.33
2019-02-23T00:48:19.050Z,74.97
2019-02-23T00:50:48.367Z,77.33
2019-02-23T00:53:17.714Z,85.40
2019-02-23T00:55:47.055Z,72.60
2019-02-23T00:58:16.398Z,74.33
2019-02-23T01:00:45.755Z,75.80
2019-02-23T01:03:15.078Z,83.13
2019-02-23T01:05:44.421Z,83.53
2019-02-23T01:08:13.736Z,75.17
2019-02-23T01:10:43.082Z,73.67
2019-02-23T01:13:12.409Z,76.27
2019-02-23T01:15:43.803Z,77.07
2019-02-23T01:18:13.141Z,81.37
2019-02-23T01:20:42.504Z,71.77
2019-02-23T01:23:11.881Z,71.27
2019-02-23T01:25:41.238Z,72.60
2019-02-23T01:28:10.579Z,73.87
2019-02-23T01:30:39.916Z,72.47
2019-02-23T01:33:09.249Z,70.63
2019-02-23T01:35:38.617Z,76.93
2019-02-23T01:38:08.134Z,72.27
2019-02-23T01:40:37.466Z,80.50
2019-02-23T01:43:06.828Z,82.60
2019-02-23T01:45:42.368Z,79.70
2019-02-23T01:48:07.202Z,71.37
2019-02-23T01:50:36.549Z,79.50
2019-02-23T01:53:05.867Z,76.50
2019-02-23T01:55:35.222Z,76.67
2019-02-23T01:58:04.640Z,69.77
2019-02-23T02:00:34.496Z,74.73
2019-02-23T02:03:03.849Z,78.10
2019-02-23T02:05:33.187Z,83.70
2019-02-23T02:08:03.402Z,74.43
2019-02-23T02:10:32.778Z,79.53
2019-02-23T02:13:02.206Z,70.97
2019-02-23T02:15:31.743Z,75.57
2019-02-23T02:18:01.071Z,74.97
2019-02-23T02:20:30.400Z,75.63
2019-02-23T02:22:59.748Z,71.70
2019-02-23T02:25:29.126Z,82.10
2019-02-23T02:27:58.474Z,81.63
2019-02-23T02:30:27.815Z,78.87
2019-02-23T02:32:57.179Z,72.80
2019-02-23T02:35:26.518Z,84.90
2019-02-23T02:37:55.832Z,88.03
2019-02-23T02:40:25.237Z,84.37
2019-02-23T02:42:54.513Z,81.87
2019-02-23T02:45:23.865Z,79.27
2019-02-23T02:47:53.228Z,78.80
2019-02-23T02:50:24.595Z,84.17
2019-02-23T02:52:53.653Z,78.97
2019-02-23T02:55:22.997Z,84.63
2019-02-23T02:57:52.360Z,83.83
2019-02-23T03:00:21.688Z,82.00
2019-02-23T03:02:51.040Z,84.40
2019-02-23T03:05:20.385Z,84.07
2019-02-23T03:07:49.750Z,84.93
2019-02-23T03:10:19.102Z,82.60
2019-02-23T03:12:48.447Z,82.57
2019-02-23T03:15:17.806Z,86.63
2019-02-23T03:17:47.121Z,77.00
2019-02-23T03:20:16.458Z,85.37
2019-02-23T03:22:45.778Z,86.80
2019-02-23T03:25:15.131Z,87.07
2019-02-23T03:27:44.463Z,85.57
2019-02-23T03:30:13.790Z,84.63
2019-02-23T03:32:43.139Z,74.80
2019-02-23T03:35:12.467Z,86.60
2019-02-23T03:37:41.856Z,85.37
2019-02-23T03:40:11.186Z,87.07
2019-02-23T03:42:40.546Z,88.50
2019-02-23T03:45:09.969Z,91.87
2019-02-23T03:47:39.354Z,89.97
2019-02-23T03:50:08.898Z,102.60
2019-02-23T03:52:38.215Z,90.43
2019-02-23T03:55:07.590Z,91.00
2019-02-23T03:57:36.961Z,93.67
2019-02-23T04:00:07.107Z,94.97
2019-02-23T04:02:36.441Z,101.50
2019-02-23T04:05:05.954Z,100.47
2019-02-23T04:07:35.263Z,93.50
2019-02-23T04:10:04.805Z,100.80
2019-02-23T04:12:34.158Z,101.30
2019-02-23T04:15:03.588Z,98.77
2019-02-23T04:17:32.949Z,100.47
2019-02-23T04:20:02.390Z,106.10
2019-02-23T04:22:31.731Z,95.70
2019-02-23T04:25:01.055Z,98.13
2019-02-23T04:27:30.401Z,96.57
2019-02-23T04:29:59.738Z,107.47
2019-02-23T04:32:29.113Z,102.40
2019-02-23T04:34:58.448Z,105.67
2019-02-23T04:37:27.811Z,108.93
2019-02-23T04:39:57.159Z,105.93
2019-02-23T04:42:26.548Z,92.43
2019-02-23T04:44:55.902Z,100.77
2019-02-23T04:47:25.258Z,106.03
2019-02-23T04:49:55.533Z,104.50
2019-02-23T04:52:24.884Z,96.93
2019-02-23T04:54:54.220Z,94.83
2019-02-23T04:57:23.586Z,96.10
2019-02-23T04:59:52.976Z,102.50
2019-02-23T05:02:22.303Z,96.10
2019-02-23T05:04:51.662Z,99.93
2019-02-23T05:07:20.974Z,106.43
2019-02-23T05:09:50.329Z,112.13
2019-02-23T05:12:19.656Z,98.60
2019-02-23T05:14:49.022Z,104.57
2019-02-23T05:17:18.359Z,101.70
2019-02-23T05:19:47.717Z,98.97
2019-02-23T05:22:17.088Z,100.63
2019-02-23T05:24:46.431Z,106.63
2019-02-23T05:27:15.806Z,99.43
2019-02-23T05:29:45.137Z,98.03
2019-02-23T05:32:14.466Z,101.57
2019-02-23T05:34:43.838Z,99.30
2019-02-23T05:37:13.177Z,92.80
2019-02-23T05:39:42.519Z,97.63
2019-02-23T05:42:13.202Z,96.37
2019-02-23T05:44:42.577Z,96.70
2019-02-23T05:47:11.928Z,94.47
2019-02-23T05:49:41.308Z,86.00
2019-02-23T05:52:10.670Z,92.00
2019-02-23T05:54:40.063Z,84.13
2019-02-23T05:57:09.377Z,98.17
2019-02-23T05:59:38.753Z,90.17
2019-02-23T06:02:08.509Z,92.77
2019-02-23T06:04:37.848Z,91.67
2019-02-23T06:07:07.212Z,90.37
2019-02-23T06:09:36.555Z,93.37
2019-02-23T06:12:05.927Z,96.30
2019-02-23T06:14:35.287Z,86.83
2019-02-23T06:17:04.633Z,95.53
2019-02-23T06:19:33.998Z,97.03
2019-02-23T06:22:03.346Z,100.00
2019-02-23T06:24:32.731Z,98.20
2019-02-23T06:27:02.114Z,91.13
2019-02-23T06:29:31.425Z,99.70
2019-02-23T06:32:00.763Z,91.40
2019-02-23T06:34:30.087Z,90.60
2019-02-23T06:36:59.440Z,92.77
2019-02-23T06:39:28.846Z,90.20
2019-02-23T06:41:58.177Z,96.07
2019-02-23T06:44:27.533Z,96.87
2019-02-23T06:46:56.926Z,97.20
2019-02-23T06:49:26.326Z,94.00
2019-02-23T06:52:03.929Z,96.80
2019-02-23T06:54:26.991Z,95.57
2019-02-23T06:56:56.364Z,87.93
2019-02-23T06:59:25.752Z,93.80
2019-02-23T07:01:56.705Z,99.73
2019-02-23T07:04:26.127Z,81.87
2019-02-23T07:06:55.455Z,83.70
2019-02-23T07:09:24.818Z,95.67
2019-02-23T07:11:54.151Z,87.20
2019-02-23T07:14:23.500Z,90.30
2019-02-23T07:16:52.842Z,92.63
2019-02-23T07:19:22.178Z,88.87
2019-02-23T07:21:51.533Z,87.73
2019-02-23T07:24:20.876Z,83.40
2019-02-23T07:26:50.229Z,93.73
2019-02-23T07:29:19.544Z,87.47
2019-02-23T07:31:48.890Z,82.93
2019-02-23T07:34:18.217Z,76.47
2019-02-23T07:36:47.632Z,86.73
2019-02-23T07:39:16.986Z,96.43
2019-02-23T07:41:46.337Z,83.23
2019-02-23T07:44:17.728Z,85.30
2019-02-23T07:46:47.067Z,81.97
2019-02-23T07:49:16.456Z,77.63
2019-02-23T07:51:46.324Z,77.60
2019-02-23T07:54:15.659Z,81.87
2019-02-23T07:56:45.003Z,83.60
2019-02-23T07:59:14.353Z,83.10
2019-02-23T08:01:44.167Z,75.30
2019-02-23T08:04:13.516Z,79.53
2019-02-23T08:06:42.866Z,77.27
2019-02-23T08:09:12.362Z,75.03
2019-02-23T08:11:41.700Z,71.27
2019-02-23T08:14:11.032Z,72.90
2019-02-23T08:16:40.399Z,71.93
2019-02-23T08:19:09.766Z,68.60
2019-02-23T08:21:39.116Z,68.70
2019-02-23T08:24:08.557Z,69.63
2019-02-23T08:26:37.910Z,65.30
2019-02-23T08:29:07.252Z,81.27
2019-02-23T08:31:36.596Z,68.03
2019-02-23T08:34:05.940Z,64.83
2019-02-23T08:36:35.262Z,63.83
2019-02-23T08:39:04.661Z,62.50
2019-02-23T08:41:33.997Z,62.03
2019-02-23T08:44:03.448Z,65.70
2019-02-23T08:46:32.834Z,61.40
2019-02-23T08:49:02.241Z,62.13
2019-02-23T08:51:31.645Z,64.27
2019-02-23T08:54:01.003Z,63.07
2019-02-23T08:56:31.076Z,65.33
2019-02-23T08:59:00.591Z,62.43
2019-02-23T09:01:29.932Z,59.10
2019-02-23T09:03:59.269Z,58.57
2019-02-23T09:06:28.631Z,66.03
2019-02-23T09:08:58.998Z,57.53
2019-02-23T09:11:28.302Z,60.33
2019-02-23T09:13:57.743Z,57.00
2019-02-23T09:16:27.093Z,59.43
2019-02-23T09:18:56.442Z,55.97
2019-02-23T09:21:25.775Z,51.93
2019-02-23T09:23:55.119Z,56.03
2019-02-23T09:26:24.439Z,55.10
2019-02-23T09:28:53.782Z,54.20
2019-02-23T09:31:23.091Z,56.07
2019-02-23T09:33:52.457Z,54.97
2019-02-23T09:36:21.818Z,55.13
2019-02-23T09:38:52.211Z,53.83
2019-02-23T09:41:21.530Z,52.43
2019-02-23T09:43:50.925Z,49.47
2019-02-23T09:46:20.231Z,55.67
2019-02-23T09:48:49.571Z,49.80
2019-02-23T09:51:20.135Z,49.50
2019-02-23T09:53:49.499Z,50.77
2019-02-23T09:56:18.847Z,57.47
2019-02-23T09:58:48.175Z,49.30
2019-02-23T10:01:17.654Z,50.97
2019-02-23T10:03:46.983Z,54.80
2019-02-23T10:06:16.343Z,46.33
2019-02-23T10:08:45.879Z,51.03
2019-02-23T10:11:15.201Z,46.03
2019-02-23T10:13:44.511Z,46.67
2019-02-23T10:16:13.879Z,52.07
2019-02-23T10:18:43.219Z,45.83
2019-02-23T10:21:12.563Z,44.87
2019-02-23T10:23:41.901Z,44.47
2019-02-23T10:26:13.513Z,45.57
2019-02-23T10:28:42.850Z,50.97
2019-02-23T10:31:12.174Z,46.73
2019-02-23T10:33:47.606Z,49.23
2019-02-23T10:36:12.584Z,40.63
2019-02-23T10:38:41.929Z,40.93
2019-02-23T10:41:11.339Z,41.13
2019-02-23T10:43:40.699Z,38.00
2019-02-23T10:46:10.036Z,42.60
2019-02-23T10:48:39.459Z,44.77
2019-02-23T10:51:08.814Z,39.37
2019-02-23T10:53:38.188Z,41.63
2019-02-23T10:56:07.551Z,39.23
2019-02-23T10:58:36.880Z,39.57
2019-02-23T11:01:07.110Z,39.43
2019-02-23T11:03:36.685Z,41.43
2019-02-23T11:06:06.713Z,37.57
2019-02-23T11:08:36.112Z,38.70
2019-02-23T11:11:05.899Z,39.83
2019-02-23T11:13:35.235Z,37.70
2019-02-23T11:16:04.590Z,37.60
2019-02-23T11:18:33.942Z,37.87
2019-02-23T11:21:03.412Z,42.50
2019-02-23T11:23:43.506Z,40.47
2019-02-23T11:26:03.803Z,42.33
2019-02-23T11:28:33.315Z,38.10
2019-02-23T11:31:02.733Z,41.20
2019-02-23T11:33:32.167Z,40.40
2019-02-23T11:36:01.508Z,41.53
2019-02-23T11:38:30.869Z,37.73
2019-02-23T11:41:00.218Z,44.97
2019-02-23T11:43:29.622Z,34.10
2019-02-23T11:45:58.964Z,34.20
2019-02-23T11:48:28.310Z,39.13
2019-02-23T11:50:57.758Z,36.90
2019-02-23T11:53:27.137Z,35.13
2019-02-23T11:55:56.476Z,39.40
2019-02-23T11:58:25.827Z,36.63
2019-02-23T12:00:55.171Z,39.03
2019-02-23T12:03:24.483Z,38.17
2019-02-23T12:05:53.820Z,34.13
2019-02-23T12:08:23.156Z,35.27
2019-02-23T12:10:52.532Z,37.20
2019-02-23T12:13:21.869Z,36.27
2019-02-23T12:15:51.226Z,39.53
2019-02-23T12:18:20.546Z,34.57
2019-02-23T12:20:49.935Z,32.83
2019-02-23T12:23:19.289Z,40.80
2019-02-23T12:25:48.645Z,41.60
2019-02-23T12:28:17.984Z,33.53
2019-02-23T12:30:47.319Z,33.73
2019-02-23T12:33:16.699Z,35.37
2019-02-23T12:35:46.083Z,36.37
2019-02-23T12:38:16.407Z,35.60
2019-02-23T12:40:45.750Z,33.03
2019-02-23T12:43:15.098Z,37.20
2019-02-23T12:45:46.247Z,36.83
2019-02-23T12:48:15.646Z,33.80
2019-02-23T12:50:46.803Z,37.43
2019-02-23T12:53:16.207Z,34.70
2019-02-23T12:55:45.559Z,35.90
2019-02-23T12:58:14.907Z,36.50
2019-02-23T13:00:44.351Z,37.03
2019-02-23T13:03:13.718Z,37.97
2019-02-23T13:05:43.101Z,35.40
2019-02-23T13:08:12.456Z,38.37
2019-02-23T13:10:42.064Z,42.20
2019-02-23T13:13:55.360Z,35.37
2019-02-23T13:17:04.755Z,34.17
2019-02-23T13:20:11.138Z,44.10
2019-02-23T13:23:33.218Z,49.33
2019-02-23T13:26:47.943Z,39.40
2019-02-23T13:29:58.353Z,38.67
2019-02-23T13:33:02.429Z,41.00
2019-02-23T13:36:08.503Z,41.60
2019-02-23T13:39:04.533Z,40.23
2019-02-23T13:42:02.817Z,39.53
2019-02-23T13:45:06.430Z,45.57
2019-02-23T13:47:58.863Z,40.50
2019-02-23T13:50:57.717Z,39.50
2019-02-23T13:54:03.960Z,38.30
2019-02-23T13:57:02.129Z,38.63
2019-02-23T13:59:42.534Z,41.37
2019-02-23T14:02:48.623Z,36.60
2019-02-23T14:05:53.150Z,39.87
2019-02-23T14:09:02.979Z,42.93
2019-02-23T14:12:08.039Z,41.07
2019-02-23T14:15:05.492Z,39.90
2019-02-23T14:18:07.986Z,37.77
2019-02-23T14:21:02.351Z,45.73
2019-02-23T14:24:18.575Z,38.67
2019-02-23T14:27:40.737Z,38.90
2019-02-23T14:30:50.076Z,40.47
2019-02-23T14:34:09.646Z,40.53
2019-02-23T14:37:10.055Z,40.50
2019-02-23T14:40:23.219Z,39.20
2019-02-23T14:43:27.102Z,45.10
2019-02-23T14:46:31.894Z,43.67
2019-02-23T14:49:30.407Z,42.97
2019-02-23T14:52:46.110Z,49.17
2019-02-23T14:55:49.930Z,45.97
2019-02-23T14:58:54.951Z,46.47
2019-02-23T15:02:04.984Z,50.30
2019-02-23T15:04:56.657Z,55.60
2019-02-23T15:08:01.820Z,43.80
2019-02-23T15:11:10.788Z,43.33
2019-02-23T15:14:23.426Z,43.77
2019-02-23T15:17:28.557Z,43.60
2019-02-23T15:20:36.783Z,46.10
2019-02-23T15:23:46.611Z,52.93
2019-02-23T15:27:03.306Z,53.27
2019-02-23T15:29:59.656Z,47.67
2019-02-23T15:33:20.417Z,50.03
2019-02-23T15:36:22.977Z,43.27
2019-02-23T15:39:24.206Z,48.63
2019-02-23T15:42:27.483Z,46.60
2019-02-23T15:45:25.368Z,45.43
2019-02-23T15:48:47.735Z,43.90
2019-02-23T15:51:17.163Z,44.20
2019-02-23T15:53:46.496Z,37.87
2019-02-23T15:56:15.914Z,40.00
2019-02-23T15:58:45.204Z,43.30
2019-02-23T16:01:14.527Z,48.00
2019-02-23T16:03:43.899Z,43.70
2019-02-23T16:06:13.235Z,48.50
2019-02-23T16:08:42.618Z,46.83
2019-02-23T16:11:11.979Z,38.27
2019-02-23T16:13:41.355Z,38.63
2019-02-23T16:16:10.697Z,31.73
2019-02-23T16:18:40.052Z,40.70
2019-02-23T16:21:09.416Z,36.23
2019-02-23T16:23:38.807Z,37.80
2019-02-23T16:26:08.146Z,36.00
2019-02-23T16:28:37.524Z,47.17
2019-02-23T16:31:06.863Z,42.13
2019-02-23T16:33:36.231Z,45.53
2019-02-23T16:36:05.614Z,41.43
2019-02-23T16:38:34.962Z,44.70
2019-02-23T16:41:04.283Z,36.30
2019-02-23T16:43:33.701Z,41.10
2019-02-23T16:46:03.128Z,36.57
2019-02-23T16:48:32.457Z,43.83
2019-02-23T16:51:01.799Z,45.13
2019-02-23T16:53:31.125Z,50.37
2019-02-23T16:56:00.472Z,52.63
2019-02-23T16:58:29.870Z,46.70
2019-02-23T17:00:59.225Z,49.77
2019-02-23T17:03:28.588Z,61.93
2019-02-23T17:05:57.930Z,62.03
2019-02-23T17:08:27.362Z,53.63
2019-02-23T17:10:56.724Z,62.17
2019-02-23T17:13:26.133Z,49.10
2019-02-23T17:15:55.532Z,56.77
2019-02-23T17:18:24.919Z,49.03
2019-02-23T17:20:54.272Z,50.37
2019-02-23T17:23:23.620Z,52.27
2019-02-23T17:26:03.769Z,56.90
2019-02-23T17:28:24.060Z,56.37
2019-02-23T17:30:53.410Z,60.93
2019-02-23T17:33:22.809Z,57.33
2019-02-23T17:35:52.154Z,65.97
2019-02-23T17:38:22.070Z,55.30
2019-02-23T17:40:51.427Z,55.53
2019-02-23T17:43:20.842Z,50.50
2019-02-23T17:45:50.241Z,65.13
2019-02-23T17:48:19.650Z,46.30
2019-02-23T17:50:50.662Z,61.53
2019-02-23T17:53:20.143Z,59.90
2019-02-23T17:55:49.500Z,49.33
2019-02-23T17:58:24.933Z,66.27
2019-02-23T18:00:54.263Z,61.73
2019-02-23T18:03:23.642Z,57.03
2019-02-23T18:05:52.979Z,59.50
2019-02-23T18:08:22.372Z,53.40
2019-02-23T18:10:51.701Z,61.93
2019-02-23T18:13:21.056Z,59.77
2019-02-23T18:15:50.417Z,56.87
2019-02-23T18:18:19.765Z,41.20
2019-02-23T18:20:49.130Z,61.40
2019-02-23T18:23:18.568Z,60.80
2019-02-23T18:25:48.002Z,61.03
2019-02-23T18:28:17.425Z,62.13
2019-02-23T18:30:46.852Z,60.03
2019-02-23T18:33:16.233Z,56.97
2019-02-23T18:35:45.606Z,50.33
2019-02-23T18:38:16.043Z,57.77
2019-02-23T18:40:45.417Z,58.07
2019-02-23T18:43:14.805Z,61.93
2019-02-23T18:45:47.366Z,57.33
2019-02-23T18:48:15.798Z,60.73
2019-02-23T18:50:45.199Z,66.40
2019-02-23T18:53:14.554Z,62.47
2019-02-23T18:55:44.003Z,66.93
2019-02-23T18:58:13.603Z,60.77
2019-02-23T19:00:43.035Z,72.57
2019-02-23T19:03:13.056Z,68.00
2019-02-23T19:05:49.706Z,56.00
2019-02-23T19:08:13.799Z,54.63
2019-02-23T19:10:43.176Z,64.83
2019-02-23T19:13:12.522Z,65.63
2019-02-23T19:15:42.004Z,59.03
2019-02-23T19:18:11.395Z,63.77
2019-02-23T19:20:40.927Z,61.90
2019-02-23T19:23:10.342Z,71.30
2019-02-23T19:25:39.693Z,73.10
2019-02-23T19:28:09.201Z,67.13
2019-02-23T19:30:38.705Z,63.17
2019-02-23T19:33:08.043Z,70.33
2019-02-23T19:35:37.442Z,67.60
2019-02-23T19:38:06.793Z,71.03
2019-02-23T19:40:36.147Z,72.20
2019-02-23T19:43:05.509Z,57.20
2019-02-23T19:45:34.847Z,59.63
2019-02-23T19:48:04.191Z,66.93
2019-02-23T19:50:40.097Z,63.17
2019-02-23T19:53:09.473Z,65.93
2019-02-23T19:55:38.797Z,79.53
2019-02-23T19:58:08.218Z,61.90
2019-02-23T20:00:39.669Z,66.00
2019-02-23T20:03:08.998Z,66.43
2019-02-23T20:05:38.361Z,77.83
2019-02-23T20:08:07.737Z,68.50
2019-02-23T20:10:37.094Z,72.17
2019-02-23T20:13:06.457Z,54.90
2019-02-23T20:15:35.809Z,69.90
2019-02-23T20:18:05.974Z,64.13
2019-02-23T20:20:35.471Z,54.70
2019-02-23T20:23:04.838Z,68.07
2019-02-23T20:25:34.213Z,67.57
2019-02-23T20:28:03.646Z,79.30
2019-02-23T20:30:33.030Z,69.33
2019-02-23T20:33:02.525Z,71.13
2019-02-23T20:35:32.261Z,80.87
2019-02-23T20:38:03.986Z,81.43
2019-02-23T20:40:33.392Z,74.17
2019-02-23T20:43:02.789Z,80.53
2019-02-23T20:45:32.165Z,81.03
2019-02-23T20:48:01.606Z,73.30
2019-02-23T20:50:31.045Z,81.10
2019-02-23T20:53:00.496Z,81.00
2019-02-23T20:55:29.898Z,74.13
2019-02-23T20:57:59.329Z,82.83
2019-02-23T21:00:28.915Z,81.83
2019-02-23T21:02:58.440Z,80.17
2019-02-23T21:05:28.118Z,85.47
2019-02-23T21:07:57.481Z,82.10
2019-02-23T21:10:26.962Z,80.30
2019-02-23T21:12:56.566Z,84.47
2019-02-23T21:15:25.975Z,78.40
2019-02-23T21:17:55.350Z,86.87
2019-02-23T21:20:24.986Z,84.57
2019-02-23T21:22:54.398Z,83.90
2019-02-23T21:25:24.013Z,76.83
2019-02-23T21:27:53.719Z,93.17
2019-02-23T21:30:23.122Z,81.80
2019-02-23T21:32:52.576Z,78.97
2019-02-23T21:35:22.001Z,78.07
2019-02-23T21:37:51.360Z,81.33
2019-02-23T21:40:20.732Z,83.27
2019-02-23T21:42:50.078Z,85.63
2019-02-23T21:45:19.403Z,92.87
2019-02-23T21:47:48.808Z,85.57
2019-02-23T21:50:18.197Z,84.27
2019-02-23T21:52:47.597Z,84.30
2019-02-23T21:55:16.910Z,86.37
2019-02-23T21:57:46.293Z,85.53
2019-02-23T22:00:15.781Z,82.30
2019-02-23T22:02:45.117Z,86.00
2019-02-23T22:05:14.478Z,88.17
2019-02-23T22:07:43.789Z,89.83
2019-02-23T22:10:13.153Z,91.57
2019-02-23T22:12:42.495Z,84.43
2019-02-23T22:15:11.862Z,84.60
2019-02-23T22:17:41.206Z,82.77
2019-02-23T22:20:12.276Z,90.57
2019-02-23T22:22:41.631Z,85.60
2019-02-23T22:25:11.093Z,87.20
2019-02-23T22:27:40.440Z,86.40
2019-02-23T22:30:09.857Z,88.60
2019-02-23T22:32:39.226Z,90.13
2019-02-23T22:35:08.567Z,87.57
2019-02-23T22:37:37.997Z,91.57
2019-02-23T22:40:07.333Z,88.10
2019-02-23T22:42:36.682Z,94.60
2019-02-23T22:45:06.525Z,90.93
2019-02-23T22:47:35.861Z,92.33
2019-02-23T22:50:05.277Z,93.43
2019-02-23T22:52:34.660Z,97.70
2019-02-23T22:55:04.007Z,92.33
2019-02-23T22:57:40.318Z,97.23
2019-02-23T23:00:04.682Z,96.90
2019-02-23T23:02:34.070Z,96.63
2019-02-23T23:05:03.403Z,97.03
2019-02-23T23:07:32.788Z,93.37
2019-02-23T23:10:02.111Z,90.13
2019-02-23T23:12:31.452Z,89.50
2019-02-23T23:15:00.818Z,93.13
2019-02-23T23:17:30.143Z,93.80
2019-02-23T23:19:59.500Z,89.83
2019-02-23T23:22:28.844Z,100.97
2019-02-23T23:24:58.219Z,92.00
2019-02-23T23:27:27.540Z,96.23
2019-02-23T23:29:56.916Z,90.40
2019-02-23T23:32:26.268Z,87.47
2019-02-23T23:34:55.626Z,92.70
2019-02-23T23:37:24.992Z,85.83
2019-02-23T23:39:54.337Z,90.10
2019-02-23T23:42:23.672Z,86.27
2019-02-23T23:44:53.017Z,88.97
2019-02-23T23:47:22.364Z,88.23
2019-02-23T23:49:51.727Z,87.67
2019-02-23T23:52:21.091Z,86.43
2019-02-23T23:54:51.463Z,84.13
2019-02-23T23:57:20.800Z,82.70
2019-02-23T23:59:50.242Z,83.90
